Time;durP1;ratioP1;P1;durP2;ratioP2;P2;SDS_P1;SDS_P2;PMS_P1;PMS_P2;Temp;Humidity;BMP_temperature;BMP_pressure;BME280_temperature;BME280_humidity;BME280_pressure;Samples;Min_cycle;Max_cycle;Signal;HPM_P1;HPM_P2
2022/06/05 00:01:22;;;;;;;4.13;3.50;;;12.70;99.90;;;;;;5004901;28;20051;-76
2022/06/05 00:03:52;;;;;;;4.80;3.67;;;12.70;99.90;;;;;;4981137;28;20278;-72
2022/06/05 00:06:31;;;;;;;3.70;3.33;;;12.70;99.90;;;;;;4999134;28;20379;-68
2022/06/05 00:09:18;;;;;;;3.20;2.90;;;12.60;99.90;;;;;;5002242;28;20942;-70
2022/06/05 00:11:53;;;;;;;4.43;4.03;;;12.60;99.90;;;;;;5003299;28;20107;-73
2022/06/05 00:14:20;;;;;;;4.40;3.72;;;12.60;99.90;;;;;;4997219;28;20041;-73
2022/06/05 00:16:47;;;;;;;3.63;3.13;;;12.50;99.90;;;;;;5002034;28;20128;-72
2022/06/05 00:19:15;;;;;;;3.25;2.95;;;12.40;99.90;;;;;;5000171;28;20087;-73
2022/06/05 00:21:42;;;;;;;5.78;3.10;;;12.40;99.90;;;;;;4999835;28;20060;-71
2022/06/05 00:24:09;;;;;;;3.60;3.30;;;12.30;99.90;;;;;;4998201;28;20052;-73
2022/06/05 00:26:54;;;;;;;5.57;3.10;;;12.30;99.90;;;;;;4999681;28;20049;-72
2022/06/05 00:29:58;;;;;;;4.10;3.65;;;12.30;99.90;;;;;;4998991;28;20603;-72
2022/06/05 00:32:44;;;;;;;5.35;3.80;;;12.20;99.90;;;;;;4996951;28;20045;-73
2022/06/05 00:35:17;;;;;;;3.30;3.00;;;12.20;99.90;;;;;;5000580;28;20103;-69
2022/06/05 00:38:02;;;;;;;5.38;3.67;;;12.20;99.90;;;;;;5002889;28;20083;-70
2022/06/05 00:40:51;;;;;;;3.60;3.28;;;12.20;99.90;;;;;;4999826;28;20045;-74
2022/06/05 00:43:21;;;;;;;3.42;3.20;;;12.10;99.90;;;;;;5000960;28;20203;-71
2022/06/05 00:45:48;;;;;;;3.75;3.45;;;12.20;99.90;;;;;;4996178;28;20069;-72
2022/06/05 00:48:15;;;;;;;3.75;3.15;;;12.20;99.90;;;;;;4978323;28;20964;-73
2022/06/05 00:50:44;;;;;;;4.30;3.40;;;12.20;99.90;;;;;;4999709;28;20054;-72
2022/06/05 00:53:12;;;;;;;4.55;3.85;;;12.30;99.90;;;;;;5002571;28;20063;-75
2022/06/05 00:55:42;;;;;;;6.97;3.95;;;12.20;99.90;;;;;;5000761;28;20146;-73
2022/06/05 00:58:10;;;;;;;4.20;3.90;;;12.20;99.90;;;;;;4999622;28;20054;-71
2022/06/05 01:00:52;;;;;;;4.18;3.13;;;12.20;99.90;;;;;;4993554;28;20054;-77
2022/06/05 01:03:20;;;;;;;6.05;3.50;;;12.20;99.90;;;;;;5001853;28;20176;-71
2022/06/05 01:05:47;;;;;;;3.28;2.97;;;12.30;99.90;;;;;;5000355;28;20049;-72
2022/06/05 01:08:16;;;;;;;4.65;3.67;;;12.30;99.90;;;;;;5000416;28;20168;-69
2022/06/05 01:11:10;;;;;;;3.83;3.53;;;12.20;99.90;;;;;;5001293;28;20188;-70
2022/06/05 01:13:40;;;;;;;4.00;3.70;;;12.30;99.90;;;;;;5001857;28;20155;-74
2022/06/05 01:16:19;;;;;;;3.60;3.30;;;12.30;99.90;;;;;;4999011;28;20046;-73
2022/06/05 01:18:49;;;;;;;5.72;4.10;;;12.30;99.90;;;;;;4999283;28;20136;-75
2022/06/05 01:21:42;;;;;;;8.98;4.55;;;12.30;99.90;;;;;;5001279;28;20057;-73
2022/06/05 01:24:36;;;;;;;4.35;3.88;;;12.20;99.90;;;;;;5001958;28;20167;-73
2022/06/05 01:27:07;;;;;;;4.68;4.25;;;12.10;99.90;;;;;;4999075;28;20164;-69
2022/06/05 01:29:41;;;;;;;4.65;4.13;;;12.10;99.90;;;;;;4997509;28;20867;-75
2022/06/05 01:32:13;;;;;;;5.45;4.25;;;12.00;99.90;;;;;;5000424;28;20104;-75
2022/06/05 01:34:45;;;;;;;5.32;4.43;;;12.00;99.90;;;;;;5002833;28;20143;-69
2022/06/05 01:37:23;;;;;;;4.60;4.13;;;11.90;99.90;;;;;;5004499;28;20163;-70
2022/06/05 01:40:05;;;;;;;5.90;4.35;;;11.90;99.90;;;;;;5004483;28;20743;-72
2022/06/05 01:42:41;;;;;;;6.22;4.32;;;11.80;99.90;;;;;;5000899;28;20683;-73
2022/06/05 01:45:19;;;;;;;4.22;3.83;;;11.80;99.90;;;;;;5005174;28;20056;-74
2022/06/05 01:47:52;;;;;;;5.03;4.53;;;11.80;99.90;;;;;;5004672;28;20045;-75
2022/06/05 01:50:42;;;;;;;4.80;4.40;;;11.80;99.90;;;;;;4999163;28;20049;-75
2022/06/05 01:53:26;;;;;;;7.72;4.13;;;11.70;99.90;;;;;;5004046;28;20112;-73
2022/06/05 01:55:58;;;;;;;5.13;4.53;;;11.70;99.90;;;;;;4999636;28;20121;-71
2022/06/05 01:58:45;;;;;;;7.30;5.80;;;11.60;99.90;;;;;;5000643;28;20068;-70
2022/06/05 02:01:21;;;;;;;4.78;4.35;;;11.60;99.90;;;;;;5003000;28;20530;-73
2022/06/05 02:03:56;;;;;;;5.30;4.60;;;11.50;99.90;;;;;;5002065;28;20072;-76
2022/06/05 02:06:46;;;;;;;5.40;4.90;;;11.50;99.90;;;;;;5000349;28;20513;-75
2022/06/05 02:09:36;;;;;;;4.88;4.28;;;11.50;99.90;;;;;;4982928;28;20064;-73
2022/06/05 02:12:06;;;;;;;6.70;5.17;;;11.50;99.90;;;;;;4973249;28;20045;-70
2022/06/05 02:14:33;;;;;;;5.75;4.72;;;11.40;99.90;;;;;;5000180;28;20282;-72
2022/06/05 02:17:02;;;;;;;5.40;4.40;;;11.40;99.90;;;;;;5000851;28;20188;-72
2022/06/05 02:19:29;;;;;;;7.32;5.15;;;11.40;99.90;;;;;;5005872;28;20100;-73
2022/06/05 02:22:03;;;;;;;6.63;5.68;;;11.40;99.90;;;;;;4999209;28;20864;-73
2022/06/05 02:24:31;;;;;;;6.88;4.90;;;11.40;99.90;;;;;;5000282;28;20222;-70
2022/06/05 02:27:01;;;;;;;9.40;6.15;;;11.30;99.90;;;;;;5002929;28;20158;-70
2022/06/05 02:29:28;;;;;;;;;;;11.30;99.90;;;;;;5003505;28;20052;-69
2022/06/05 02:32:02;;;;;;;10.35;6.00;;;11.40;99.90;;;;;;5003219;28;20058;-76
2022/06/05 02:35:15;;;;;;;6.00;5.40;;;11.40;99.90;;;;;;5001555;28;20260;-72
2022/06/05 02:37:45;;;;;;;4.75;4.25;;;11.40;99.90;;;;;;5000749;28;20092;-73
2022/06/05 02:40:18;;;;;;;;;;;11.40;99.90;;;;;;5002147;28;20602;-66
2022/06/05 02:42:59;;;;;;;5.80;5.20;;;11.40;99.90;;;;;;5000493;28;19929;-71
2022/06/05 02:45:29;;;;;;;6.53;5.68;;;11.40;99.90;;;;;;4999617;28;20057;-69
2022/06/05 02:48:18;;;;;;;8.65;5.15;;;11.40;99.90;;;;;;5002872;28;21095;-69
2022/06/05 02:50:52;;;;;;;10.50;6.82;;;11.40;99.90;;;;;;5001526;28;20077;-72
2022/06/05 02:53:19;;;;;;;7.18;5.25;;;11.40;99.90;;;;;;4998971;28;20053;-67
2022/06/05 02:55:46;;;;;;;6.47;5.55;;;11.40;99.90;;;;;;5001556;28;20084;-67
2022/06/05 02:58:14;;;;;;;6.55;5.90;;;11.40;99.90;;;;;;4999539;28;20080;-72
2022/06/05 03:00:40;;;;;;;7.05;5.60;;;11.50;99.90;;;;;;5003298;28;20093;-70
2022/06/05 03:05:53;;;;;;;9.02;6.85;;;11.50;99.90;;;;;;5001949;28;20147;-73
2022/06/05 03:08:21;;;;;;;6.00;5.22;;;11.50;99.90;;;;;;4999899;28;20053;-68
2022/06/05 03:10:48;;;;;;;6.95;6.25;;;11.50;99.90;;;;;;5004914;28;20102;-70
2022/06/05 03:13:15;;;;;;;5.72;5.22;;;11.50;99.90;;;;;;5002702;28;22087;-73
2022/06/05 03:15:43;;;;;;;5.22;4.72;;;11.50;99.90;;;;;;5001043;28;20077;-72
2022/06/05 03:18:14;;;;;;;6.55;5.88;;;11.60;99.90;;;;;;5005557;28;20053;-71
2022/06/05 03:20:42;;;;;;;6.28;5.60;;;11.60;99.90;;;;;;5000287;28;20053;-73
2022/06/05 03:23:11;;;;;;;5.90;4.93;;;11.60;99.90;;;;;;5004217;28;20042;-72
2022/06/05 03:25:40;;;;;;;6.70;5.30;;;11.70;99.90;;;;;;4998964;28;20053;-76
2022/06/05 03:28:09;;;;;;;6.47;5.72;;;11.70;99.90;;;;;;5002465;28;20096;-75
2022/06/05 03:30:38;;;;;;;6.88;5.55;;;11.70;99.90;;;;;;5001861;28;20118;-71
2022/06/05 03:33:06;;;;;;;4.93;4.53;;;11.80;99.90;;;;;;5002304;28;20049;-72
2022/06/05 03:35:36;;;;;;;6.22;5.63;;;11.80;99.90;;;;;;5001329;28;20053;-72
2022/06/05 03:38:04;;;;;;;;;;;11.80;99.90;;;;;;5005970;28;20077;-69
2022/06/05 03:40:32;;;;;;;5.55;4.90;;;11.90;99.90;;;;;;4999443;28;19968;-75
2022/06/05 03:43:00;;;;;;;6.03;5.25;;;12.00;99.90;;;;;;5005806;28;20183;-72
2022/06/05 03:45:27;;;;;;;5.60;5.10;;;12.00;99.90;;;;;;5002528;28;20392;-72
2022/06/05 03:47:54;;;;;;;6.38;4.93;;;12.10;99.90;;;;;;5001519;28;20175;-67
2022/06/05 03:50:21;;;;;;;5.75;5.15;;;12.10;99.90;;;;;;4999840;28;20211;-72
2022/06/05 03:52:48;;;;;;;5.60;5.07;;;12.20;99.90;;;;;;5001677;28;20153;-70
2022/06/05 03:55:20;;;;;;;6.32;5.68;;;12.20;99.90;;;;;;5000531;28;20077;-73
2022/06/05 03:57:47;;;;;;;5.57;5.05;;;12.20;99.90;;;;;;4998390;28;20088;-72
2022/06/05 04:00:17;;;;;;;6.70;5.88;;;12.30;99.90;;;;;;5001404;28;20143;-68
2022/06/05 04:02:44;;;;;;;6.47;4.68;;;12.30;99.90;;;;;;4999661;28;20200;-75
2022/06/05 04:05:15;;;;;;;4.97;4.20;;;12.30;99.90;;;;;;5002780;28;20061;-75
2022/06/05 04:07:42;;;;;;;7.03;6.32;;;12.40;99.90;;;;;;5004655;28;20053;-74
2022/06/05 04:10:14;;;;;;;5.45;4.20;;;12.40;99.90;;;;;;5000147;28;20155;-71
2022/06/05 04:12:41;;;;;;;13.18;6.82;;;12.50;99.90;;;;;;4980422;28;20128;-70
2022/06/05 04:15:09;;;;;;;7.55;5.30;;;12.60;99.90;;;;;;5003206;28;20045;-67
2022/06/05 04:17:36;;;;;;;5.55;4.60;;;12.60;99.90;;;;;;5001575;28;20049;-70
2022/06/05 04:20:04;;;;;;;5.38;4.90;;;12.70;99.90;;;;;;5002354;28;20068;-71
2022/06/05 04:22:37;;;;;;;5.65;5.03;;;12.80;99.90;;;;;;5001823;28;20750;-75
2022/06/05 04:25:06;;;;;;;6.85;5.53;;;12.90;99.90;;;;;;5002696;28;20392;-73
2022/06/05 04:27:34;;;;;;;5.45;4.55;;;13.00;99.90;;;;;;4999475;28;20143;-70
2022/06/05 04:30:01;;;;;;;5.28;4.78;;;13.20;99.90;;;;;;5002390;28;20052;-73
2022/06/05 04:32:28;;;;;;;4.28;3.88;;;13.20;99.90;;;;;;5000175;28;20056;-70
2022/06/05 04:34:55;;;;;;;4.82;4.30;;;13.40;99.90;;;;;;4998066;28;20157;-67
2022/06/05 04:37:26;;;;;;;5.93;4.25;;;13.50;99.90;;;;;;5001085;28;20148;-66
2022/06/05 04:39:53;;;;;;;4.10;3.70;;;13.70;99.90;;;;;;5001439;28;20084;-72
2022/06/05 04:42:20;;;;;;;5.68;3.60;;;13.80;99.90;;;;;;4999241;28;20076;-69
2022/06/05 04:44:47;;;;;;;5.13;3.35;;;13.90;99.90;;;;;;5000316;28;20053;-69
2022/06/05 04:47:14;;;;;;;5.93;4.03;;;14.00;99.90;;;;;;5004182;28;20052;-72
2022/06/05 04:49:41;;;;;;;3.75;3.40;;;14.10;99.90;;;;;;5004159;28;20104;-71
2022/06/05 04:52:08;;;;;;;4.93;3.83;;;14.30;99.90;;;;;;5002191;28;20085;-70
2022/06/05 04:54:35;;;;;;;5.38;3.28;;;14.40;99.90;;;;;;5000701;28;20061;-72
2022/06/05 04:57:02;;;;;;;2.92;2.65;;;14.50;99.90;;;;;;5004539;28;20057;-68
2022/06/05 04:59:29;;;;;;;4.63;4.00;;;14.60;99.90;;;;;;5001148;28;20115;-73
2022/06/05 05:01:56;;;;;;;3.60;3.22;;;14.70;99.90;;;;;;5004621;28;20124;-74
2022/06/05 05:04:23;;;;;;;4.10;3.70;;;14.80;99.90;;;;;;5002063;28;20058;-69
2022/06/05 05:06:50;;;;;;;5.93;2.92;;;14.90;99.90;;;;;;5005399;28;20166;-71
2022/06/05 05:09:17;;;;;;;3.80;3.47;;;14.90;99.90;;;;;;4988448;28;21569;-69
2022/06/05 05:11:44;;;;;;;4.38;3.50;;;15.00;99.90;;;;;;5007810;28;20243;-71
2022/06/05 05:14:11;;;;;;;3.33;3.03;;;15.00;99.90;;;;;;5002652;28;20207;-71
2022/06/05 05:16:39;;;;;;;4.03;3.50;;;15.00;99.90;;;;;;5000511;28;20539;-70
2022/06/05 05:19:07;;;;;;;4.03;3.05;;;15.00;99.90;;;;;;4985417;28;20995;-71
2022/06/05 05:21:35;;;;;;;6.50;2.90;;;15.00;99.90;;;;;;5002737;28;20572;-70
2022/06/05 05:24:03;;;;;;;3.75;3.05;;;15.00;99.90;;;;;;5003368;28;20144;-69
2022/06/05 05:26:33;;;;;;;3.42;3.13;;;15.00;99.90;;;;;;5005068;28;20049;-75
2022/06/05 05:29:02;;;;;;;3.30;3.00;;;15.00;99.90;;;;;;5001580;28;20057;-74
2022/06/05 05:31:40;;;;;;;3.97;3.17;;;15.00;99.90;;;;;;5000104;28;20057;-68
2022/06/05 05:34:08;;;;;;;3.47;3.17;;;15.00;99.90;;;;;;5008306;28;20576;-71
2022/06/05 05:36:35;;;;;;;3.75;2.33;;;15.00;99.90;;;;;;5003868;28;20167;-69
2022/06/05 05:42:05;;;;;;;2.75;2.55;;;15.00;99.90;;;;;;5005956;28;20763;-73
2022/06/05 05:44:47;;;;;;;2.67;2.47;;;15.10;99.90;;;;;;5005751;28;20316;-72
2022/06/05 05:47:20;;;;;;;2.40;2.22;;;15.10;99.90;;;;;;5003041;28;20133;-70
2022/06/05 05:49:52;;;;;;;2.30;2.10;;;15.20;99.90;;;;;;5008700;28;20108;-71
2022/06/05 05:52:19;;;;;;;2.53;2.05;;;15.30;99.90;;;;;;5001452;28;20171;-77
2022/06/05 05:54:46;;;;;;;3.90;1.83;;;15.30;99.90;;;;;;5001655;28;20728;-70
2022/06/05 05:57:13;;;;;;;2.10;1.90;;;15.40;99.90;;;;;;5004588;28;20215;-73
2022/06/05 05:59:40;;;;;;;2.00;1.90;;;15.40;99.90;;;;;;5005431;28;20103;-69
2022/06/05 06:02:11;;;;;;;2.92;1.58;;;15.50;99.90;;;;;;5001678;28;20143;-73
2022/06/05 06:04:39;;;;;;;2.03;1.92;;;15.50;99.90;;;;;;5001968;28;20065;-69
2022/06/05 06:07:06;;;;;;;2.13;1.92;;;15.60;99.90;;;;;;5004471;28;20100;-70
2022/06/05 06:09:34;;;;;;;2.17;2.00;;;15.60;99.90;;;;;;5003300;28;20604;-69
2022/06/05 06:12:02;;;;;;;2.22;2.03;;;15.70;99.90;;;;;;5004213;28;20543;-70
2022/06/05 06:14:28;;;;;;;2.33;1.77;;;15.80;99.90;;;;;;5002329;28;20120;-69
2022/06/05 06:16:55;;;;;;;1.80;1.70;;;15.80;99.90;;;;;;5002969;28;20045;-67
2022/06/05 06:19:23;;;;;;;2.28;2.17;;;15.90;99.90;;;;;;4998934;28;20053;-67
2022/06/05 06:21:49;;;;;;;1.58;1.48;;;16.00;99.90;;;;;;5004342;28;20585;-70
2022/06/05 06:24:17;;;;;;;1.70;1.58;;;16.00;99.90;;;;;;5002158;28;20519;-72
2022/06/05 06:26:44;;;;;;;1.50;1.40;;;16.10;99.90;;;;;;5002433;28;20136;-72
2022/06/05 06:29:11;;;;;;;1.60;1.48;;;16.20;99.90;;;;;;5003486;28;20192;-70
2022/06/05 06:31:39;;;;;;;1.83;1.73;;;16.30;99.90;;;;;;5002251;28;20168;-69
2022/06/05 06:34:07;;;;;;;1.75;1.65;;;16.30;99.90;;;;;;5002928;28;20057;-67
2022/06/05 06:36:34;;;;;;;2.65;2.45;;;16.40;99.90;;;;;;4998677;28;20131;-73
2022/06/05 06:39:19;;;;;;;2.17;2.08;;;16.40;99.90;;;;;;5001041;28;20057;-69
2022/06/05 06:41:47;;;;;;;1.83;1.73;;;16.50;99.90;;;;;;5000637;28;20053;-73
2022/06/05 06:44:14;;;;;;;1.83;1.73;;;16.60;99.90;;;;;;5001286;28;20487;-70
2022/06/05 06:46:41;;;;;;;1.42;1.33;;;16.60;99.90;;;;;;5013408;28;20113;-71
2022/06/05 06:49:09;;;;;;;1.67;1.55;;;16.70;99.90;;;;;;5003845;28;20565;-72
2022/06/05 06:51:36;;;;;;;1.50;1.40;;;16.70;99.90;;;;;;5000926;28;20164;-70
2022/06/05 06:54:03;;;;;;;1.70;1.60;;;16.90;99.90;;;;;;5002167;28;20140;-72
2022/06/05 06:56:33;;;;;;;2.10;1.83;;;16.90;99.90;;;;;;5001207;28;20428;-73
2022/06/05 06:59:01;;;;;;;2.30;2.10;;;17.10;99.90;;;;;;5001006;28;20099;-72
2022/06/05 07:01:28;;;;;;;2.78;2.00;;;17.10;99.90;;;;;;5002910;28;20436;-70
2022/06/05 07:03:55;;;;;;;3.65;3.05;;;16.90;99.90;;;;;;4998786;28;20056;-68
2022/06/05 07:06:22;;;;;;;3.63;3.25;;;16.80;99.90;;;;;;4998047;28;20703;-73
2022/06/05 07:08:49;;;;;;;3.22;2.92;;;16.70;99.90;;;;;;4999172;28;20053;-71
2022/06/05 07:11:17;;;;;;;4.38;3.97;;;16.50;99.90;;;;;;4999985;28;20133;-73
2022/06/05 07:13:47;;;;;;;;;;;16.40;99.90;;;;;;5003348;28;20120;-70
2022/06/05 07:16:15;;;;;;;4.25;3.83;;;16.30;99.90;;;;;;4999520;28;21401;-73
2022/06/05 07:18:42;;;;;;;4.38;3.65;;;16.30;99.90;;;;;;5006867;28;20057;-70
2022/06/05 07:21:12;;;;;;;3.38;2.90;;;16.20;99.90;;;;;;5001759;28;20065;-73
2022/06/05 07:23:39;;;;;;;4.32;4.03;;;16.20;99.90;;;;;;5002035;28;20892;-71
2022/06/05 07:26:09;;;;;;;4.78;3.97;;;16.20;99.90;;;;;;5006343;28;20084;-71
2022/06/05 07:28:37;;;;;;;4.05;3.17;;;16.20;99.90;;;;;;5000348;28;20057;-68
2022/06/05 07:31:07;;;;;;;3.97;3.42;;;16.20;99.90;;;;;;5010015;28;20045;-72
2022/06/05 07:33:35;;;;;;;3.65;3.35;;;16.30;99.90;;;;;;5006095;28;20113;-70
2022/06/05 07:36:05;;;;;;;3.63;3.10;;;16.40;99.90;;;;;;5004893;28;20115;-72
2022/06/05 07:38:34;;;;;;;7.63;4.28;;;16.50;99.90;;;;;;5006707;28;20111;-77
2022/06/05 07:41:02;;;;;;;4.72;3.50;;;16.50;99.90;;;;;;5003542;28;20151;-70
2022/06/05 07:43:29;;;;;;;4.93;4.43;;;16.60;99.90;;;;;;5008544;28;20075;-76
2022/06/05 07:45:59;;;;;;;6.28;5.03;;;16.60;99.90;;;;;;5006787;28;20055;-77
2022/06/05 07:48:26;;;;;;;4.72;4.10;;;16.50;99.90;;;;;;5005283;28;20085;-73
2022/06/05 07:56:40;;;;;;;6.20;5.63;;;16.30;99.90;;;;;;5002643;28;20111;-70
2022/06/05 07:59:07;;;;;;;5.05;4.57;;;16.30;99.90;;;;;;5009878;28;20152;-69
2022/06/05 08:01:58;;;;;;;5.47;4.90;;;16.40;99.90;;;;;;5007685;28;20154;-71
2022/06/05 08:04:27;;;;;;;6.03;5.05;;;16.40;99.90;;;;;;5005602;28;20065;-66
2022/06/05 08:06:57;;;;;;;7.20;5.85;;;16.40;99.90;;;;;;5006362;28;20045;-74
2022/06/05 08:09:25;;;;;;;5.07;4.57;;;16.40;99.90;;;;;;5003629;28;20056;-73
2022/06/05 08:11:53;;;;;;;7.10;5.13;;;16.40;99.90;;;;;;5000016;28;20045;-70
2022/06/05 08:14:20;;;;;;;3.88;3.58;;;16.50;99.90;;;;;;5001715;28;20151;-67
2022/06/05 08:16:47;;;;;;;4.18;3.78;;;16.60;99.90;;;;;;4999534;28;20168;-73
2022/06/05 08:19:21;;;;;;;7.45;4.88;;;16.70;99.90;;;;;;5003052;28;20164;-74
2022/06/05 08:21:51;;;;;;;5.05;3.22;;;16.90;99.90;;;;;;5004170;28;20419;-67
2022/06/05 08:24:19;;;;;;;6.75;3.05;;;17.10;99.90;;;;;;4983682;28;20236;-68
2022/06/05 08:26:46;;;;;;;4.95;3.60;;;17.20;99.90;;;;;;4986896;28;20958;-76
2022/06/05 08:29:13;;;;;;;3.85;3.47;;;17.30;99.90;;;;;;4981147;28;20045;-69
2022/06/05 08:31:40;;;;;;;6.10;5.57;;;17.30;99.90;;;;;;4984163;28;20129;-71
2022/06/05 08:34:08;;;;;;;6.25;5.40;;;17.20;99.90;;;;;;4985874;28;20061;-70
2022/06/05 08:36:35;;;;;;;7.20;6.55;;;17.00;99.90;;;;;;4980784;28;20054;-69
2022/06/05 08:42:16;;;;;;;8.13;6.47;;;16.70;99.90;;;;;;4987825;28;20073;-68
2022/06/05 08:44:56;;;;;;;8.88;6.65;;;16.40;99.90;;;;;;4979537;28;20677;-74
2022/06/05 08:47:30;;;;;;;8.60;7.70;;;16.30;99.90;;;;;;4981450;28;20208;-68
2022/06/05 08:50:22;;;;;;;7.97;6.35;;;16.20;99.90;;;;;;4982581;28;20121;-74
2022/06/05 08:52:56;;;;;;;8.70;7.80;;;15.90;99.90;;;;;;4981977;28;20041;-69
2022/06/05 08:55:38;;;;;;;8.05;7.32;;;15.70;99.90;;;;;;4975748;28;20060;-73
2022/06/05 08:58:23;;;;;;;16.20;8.63;;;15.60;99.90;;;;;;4973632;28;20050;-68
2022/06/05 09:00:55;;;;;;;8.77;7.97;;;15.70;99.90;;;;;;4976143;28;20488;-72
2022/06/05 09:03:52;;;;;;;8.10;7.30;;;15.70;99.90;;;;;;4986026;28;20063;-69
2022/06/05 09:06:30;;;;;;;7.95;7.10;;;15.70;99.90;;;;;;4983545;28;21607;-72
2022/06/05 09:08:59;;;;;;;8.27;7.55;;;15.60;99.90;;;;;;4987641;28;20068;-68
2022/06/05 09:11:34;;;;;;;9.13;7.00;;;15.60;99.90;;;;;;4993344;28;20163;-66
2022/06/05 09:14:33;;;;;;;7.93;7.13;;;15.60;99.90;;;;;;4987027;28;20049;-70
2022/06/05 09:17:14;;;;;;;8.75;6.53;;;15.60;99.90;;;;;;4968973;28;20102;-74
2022/06/05 09:19:41;;;;;;;;;;;15.70;99.90;;;;;;4986448;28;20784;-67
2022/06/05 09:22:10;;;;;;;6.93;6.28;;;15.80;99.90;;;;;;4983905;28;20797;-79
2022/06/05 09:25:14;;;;;;;7.75;6.88;;;15.90;99.90;;;;;;4977016;28;20362;-69
2022/06/05 09:28:05;;;;;;;8.20;6.82;;;15.90;99.90;;;;;;4977788;28;20054;-73
2022/06/05 09:30:52;;;;;;;7.78;7.05;;;15.90;99.90;;;;;;4965856;28;20130;-72
2022/06/05 09:33:23;;;;;;;7.20;6.57;;;16.10;99.90;;;;;;4983035;28;20144;-66
2022/06/05 09:35:58;;;;;;;7.13;6.43;;;16.20;99.90;;;;;;4988883;28;20053;-72
2022/06/05 09:38:46;;;;;;;7.15;6.47;;;16.00;99.90;;;;;;4981602;28;20552;-71
2022/06/05 09:41:37;;;;;;;6.45;5.82;;;16.10;99.90;;;;;;4982529;28;20053;-73
2022/06/05 09:44:19;;;;;;;6.00;5.32;;;16.20;99.90;;;;;;4983165;28;20339;-69
2022/06/05 09:47:00;;;;;;;6.00;5.43;;;16.40;99.90;;;;;;4971767;28;20629;-73
2022/06/05 09:49:42;;;;;;;6.53;5.85;;;16.40;99.90;;;;;;4981088;28;20407;-75
2022/06/05 09:52:25;;;;;;;5.68;5.22;;;16.60;99.90;;;;;;4971763;28;20054;-74
2022/06/05 09:54:55;;;;;;;6.93;5.25;;;16.80;99.90;;;;;;4982534;28;20081;-71
2022/06/05 10:00:27;;;;;;;5.22;4.50;;;17.00;99.90;;;;;;4980194;28;20300;-70
2022/06/05 10:03:00;;;;;;;6.15;5.28;;;17.20;99.90;;;;;;4975801;28;20054;-71
2022/06/05 10:05:32;;;;;;;4.93;4.43;;;17.30;99.90;;;;;;4980823;28;20627;-66
2022/06/05 10:08:17;;;;;;;5.22;4.72;;;17.50;99.90;;;;;;4978584;28;20049;-70
2022/06/05 10:10:46;;;;;;;4.72;4.32;;;17.70;99.90;;;;;;4974100;28;20054;-72
2022/06/05 10:13:42;;;;;;;5.25;4.75;;;17.80;99.90;;;;;;4978082;28;20054;-71
2022/06/05 10:16:27;;;;;;;5.78;5.25;;;17.80;99.90;;;;;;4978883;28;20752;-71
2022/06/05 10:19:14;;;;;;;4.65;4.25;;;17.90;99.90;;;;;;4979101;28;20057;-77
2022/06/05 10:21:52;;;;;;;4.65;4.25;;;17.90;99.90;;;;;;4970783;28;20137;-70
2022/06/05 10:24:34;;;;;;;5.50;5.10;;;18.00;99.90;;;;;;4978778;28;20100;-66
2022/06/05 10:27:04;;;;;;;4.93;4.53;;;18.00;99.90;;;;;;4982431;28;20117;-69
2022/06/05 10:29:38;;;;;;;5.00;4.55;;;18.20;99.90;;;;;;4981083;28;20803;-70
2022/06/05 10:32:27;;;;;;;4.45;4.05;;;18.30;99.90;;;;;;4984536;28;20069;-70
2022/06/05 10:34:54;;;;;;;5.72;5.10;;;18.40;99.90;;;;;;4968494;28;20420;-71
2022/06/05 10:37:47;;;;;;;4.75;4.38;;;18.50;99.90;;;;;;4981386;28;20164;-73
2022/06/05 10:40:32;;;;;;;6.43;4.28;;;18.60;99.90;;;;;;4976857;28;20089;-72
2022/06/05 10:43:16;;;;;;;5.10;4.38;;;18.60;99.90;;;;;;4979315;28;20138;-69
2022/06/05 10:45:57;;;;;;;8.93;4.28;;;18.70;99.90;;;;;;4980869;28;21157;-71
2022/06/05 10:48:30;;;;;;;4.07;3.67;;;18.80;99.90;;;;;;4977962;28;20137;-75
2022/06/05 10:51:23;;;;;;;4.50;4.07;;;18.90;99.90;;;;;;4974373;28;20046;-73
2022/06/05 10:54:26;;;;;;;4.30;3.90;;;19.00;99.90;;;;;;4970088;28;20073;-69
2022/06/05 10:56:58;;;;;;;3.47;3.03;;;19.20;99.90;;;;;;4979247;28;20054;-71
2022/06/05 11:00:03;;;;;;;4.22;3.75;;;19.30;99.90;;;;;;4979117;28;21636;-69
2022/06/05 11:02:36;;;;;;;3.72;3.30;;;19.30;99.90;;;;;;4978168;28;20045;-72
2022/06/05 11:05:27;;;;;;;3.28;3.08;;;19.50;99.90;;;;;;4980338;28;20424;-75
2022/06/05 11:08:16;;;;;;;3.20;2.90;;;19.60;99.90;;;;;;4981976;28;20603;-71
2022/06/05 11:14:12;;;;;;;;;;;19.70;99.90;;;;;;4972612;28;21264;-73
2022/06/05 11:17:19;;;;;;;3.70;3.40;;;19.70;99.90;;;;;;4972774;28;20108;-67
2022/06/05 11:19:51;;;;;;;3.75;3.45;;;19.70;99.90;;;;;;4980477;28;20097;-76
2022/06/05 11:22:20;;;;;;;5.13;3.90;;;19.80;99.90;;;;;;4980680;28;20053;-67
2022/06/05 11:24:55;;;;;;;3.55;3.25;;;19.70;99.90;;;;;;4982946;28;20065;-74
2022/06/05 11:28:20;;;;;;;7.55;3.15;;;19.70;99.90;;;;;;4982260;28;20153;-73
2022/06/05 11:31:10;;;;;;;3.47;2.97;;;19.70;99.90;;;;;;4961360;28;20058;-72
2022/06/05 11:33:56;;;;;;;3.80;3.05;;;19.90;99.90;;;;;;4976827;28;21203;-72
2022/06/05 11:36:43;;;;;;;2.83;2.63;;;20.10;99.90;;;;;;4980556;28;20077;-72
2022/06/05 11:39:26;;;;;;;4.28;3.45;;;20.20;99.90;;;;;;4982974;28;20089;-72
2022/06/05 11:42:17;;;;;;;4.00;3.25;;;20.20;99.90;;;;;;4959134;28;20105;-72
2022/06/05 11:44:52;;;;;;;3.13;2.92;;;20.30;99.90;;;;;;4970892;28;20053;-68
2022/06/05 11:48:05;;;;;;;3.65;3.42;;;20.40;99.90;;;;;;4981634;28;20046;-69
2022/06/05 11:51:07;;;;;;;2.72;2.53;;;20.50;99.90;;;;;;4969976;28;21129;-69
2022/06/05 11:54:12;;;;;;;3.38;2.38;;;20.60;99.90;;;;;;4978707;28;20133;-68
2022/06/05 11:56:51;;;;;;;2.38;2.10;;;20.90;99.90;;;;;;4980548;28;20201;-68
2022/06/05 11:59:35;;;;;;;4.53;2.40;;;21.10;99.90;;;;;;4980153;28;20927;-68
2022/06/05 12:02:08;;;;;;;2.42;2.22;;;21.40;99.90;;;;;;4974274;28;20223;-69
2022/06/05 12:05:05;;;;;;;3.38;3.17;;;21.60;99.90;;;;;;4973230;28;20050;-74
2022/06/05 12:07:33;;;;;;;2.10;1.65;;;21.60;99.90;;;;;;4976360;28;20128;-70
2022/06/05 12:10:06;;;;;;;2.15;1.95;;;21.80;99.90;;;;;;4958056;28;20393;-70
2022/06/05 12:12:49;;;;;;;2.90;2.70;;;21.80;99.90;;;;;;4974222;28;20238;-73
2022/06/05 12:15:30;;;;;;;2.35;2.10;;;21.90;99.90;;;;;;4983495;28;20069;-71
2022/06/05 12:18:21;;;;;;;2.00;1.80;;;22.00;99.90;;;;;;4979390;28;20203;-74
2022/06/05 12:21:04;;;;;;;2.25;2.05;;;22.00;99.90;;;;;;4977760;28;20062;-67
2022/06/05 12:23:36;;;;;;;2.53;2.33;;;21.90;99.90;;;;;;4976245;28;20050;-73
2022/06/05 12:26:20;;;;;;;2.60;2.40;;;22.20;99.90;;;;;;4976283;28;20081;-72
2022/06/05 12:28:59;;;;;;;2.28;2.17;;;22.30;99.40;;;;;;4979986;28;20165;-68
2022/06/05 12:31:38;;;;;;;1.38;1.27;;;22.30;99.80;;;;;;4967607;28;20173;-72
2022/06/05 12:34:19;;;;;;;3.23;2.23;;;22.20;99.90;;;;;;4968078;28;20050;-70
2022/06/05 12:37:16;;;;;;;2.30;2.10;;;22.30;99.90;;;;;;4973114;28;20292;-70
2022/06/05 12:39:53;;;;;;;3.25;2.25;;;22.30;99.80;;;;;;4974870;28;20060;-69
2022/06/05 12:42:30;;;;;;;3.35;2.20;;;22.40;99.70;;;;;;4982243;28;20046;-71
2022/06/05 12:45:01;;;;;;;2.38;1.90;;;22.50;99.40;;;;;;4982608;28;21230;-68
2022/06/05 12:48:00;;;;;;;3.25;2.42;;;22.50;98.00;;;;;;4978961;28;20164;-70
2022/06/05 12:51:13;;;;;;;2.97;2.78;;;22.70;97.90;;;;;;4970439;28;20149;-71
2022/06/05 12:53:55;;;;;;;2.35;2.15;;;22.80;96.50;;;;;;4918216;28;20066;-70
2022/06/05 12:56:43;;;;;;;3.10;2.88;;;22.90;96.60;;;;;;4905034;28;20099;-73
2022/06/05 12:59:21;;;;;;;1.75;1.50;;;23.10;96.40;;;;;;4963878;28;20176;-71
2022/06/05 13:02:01;;;;;;;2.47;2.28;;;23.20;96.10;;;;;;4978873;28;20128;-71
2022/06/05 13:04:44;;;;;;;2.70;2.47;;;23.30;95.50;;;;;;4980612;28;20137;-69
2022/06/05 13:07:27;;;;;;;2.00;1.80;;;23.30;93.80;;;;;;4977574;28;20062;-70
2022/06/05 13:09:59;;;;;;;2.85;1.60;;;23.40;94.60;;;;;;4976218;28;20057;-73
2022/06/05 13:12:52;;;;;;;2.10;1.92;;;23.60;94.30;;;;;;4977477;28;20049;-73
2022/06/05 13:15:30;;;;;;;2.90;1.65;;;23.80;94.30;;;;;;4979439;28;20050;-71
2022/06/05 13:18:01;;;;;;;2.38;2.10;;;23.90;94.10;;;;;;4982585;28;20058;-70
2022/06/05 13:20:39;;;;;;;2.30;2.13;;;23.90;93.60;;;;;;4981811;28;20417;-73
2022/06/05 13:23:34;;;;;;;2.60;1.70;;;24.00;92.60;;;;;;4979900;28;20058;-73
2022/06/05 13:26:26;;;;;;;3.20;1.90;;;24.20;93.30;;;;;;4974780;28;20073;-74
2022/06/05 13:28:59;;;;;;;1.67;1.58;;;24.00;92.10;;;;;;4979067;28;20926;-69
2022/06/05 13:31:45;;;;;;;1.70;1.55;;;24.00;91.70;;;;;;4981529;28;20054;-69
2022/06/05 13:34:38;;;;;;;2.45;2.25;;;24.00;91.50;;;;;;4984781;28;20098;-71
2022/06/05 13:37:43;;;;;;;2.03;1.75;;;24.10;92.10;;;;;;4983653;28;20081;-71
2022/06/05 13:40:23;;;;;;;2.20;1.73;;;24.20;91.40;;;;;;4975880;28;20129;-72
2022/06/05 13:42:51;;;;;;;1.95;1.85;;;24.40;91.20;;;;;;4983524;28;20780;-67
2022/06/05 13:45:47;;;;;;;4.15;2.33;;;24.30;91.00;;;;;;4981989;28;20559;-70
2022/06/05 13:48:30;;;;;;;1.70;1.60;;;24.40;90.80;;;;;;4983960;28;20686;-71
2022/06/05 13:51:10;;;;;;;1.83;1.73;;;24.60;91.10;;;;;;4982365;28;20050;-73